sensor_id;sensor_type;location;lat;lon;timestamp;P1;durP1;ratioP1;P2;durP2;ratioP2
44862;SDS011;30597;49.628;10.850;2023-12-04T00:00:27;8.33;;;7.53;;
44862;SDS011;30597;49.628;10.850;2023-12-04T00:02:53;7.90;;;7.20;;
44862;SDS011;30597;49.628;10.850;2023-12-04T00:05:18;8.60;;;7.70;;
44862;SDS011;30597;49.628;10.850;2023-12-04T00:07:44;8.63;;;7.13;;
44862;SDS011;30597;49.628;10.850;2023-12-04T00:10:09;9.10;;;8.20;;
44862;SDS011;30597;49.628;10.850;2023-12-04T00:12:35;7.67;;;6.87;;
44862;SDS011;30597;49.628;10.850;2023-12-04T00:15:01;8.50;;;7.60;;
44862;SDS011;30597;49.628;10.850;2023-12-04T00:17:26;24.23;;;8.20;;
44862;SDS011;30597;49.628;10.850;2023-12-04T00:19:52;11.07;;;7.73;;
44862;SDS011;30597;49.628;10.850;2023-12-04T00:22:17;8.83;;;7.23;;
44862;SDS011;30597;49.628;10.850;2023-12-04T00:24:43;10.30;;;8.17;;
44862;SDS011;30597;49.628;10.850;2023-12-04T00:27:08;8.50;;;7.40;;
44862;SDS011;30597;49.628;10.850;2023-12-04T00:29:34;8.67;;;7.07;;
44862;SDS011;30597;49.628;10.850;2023-12-04T00:31:59;9.00;;;7.60;;
44862;SDS011;30597;49.628;10.850;2023-12-04T00:34:25;7.93;;;7.17;;
44862;SDS011;30597;49.628;10.850;2023-12-04T00:36:50;7.97;;;7.23;;
44862;SDS011;30597;49.628;10.850;2023-12-04T00:39:16;8.53;;;7.77;;
44862;SDS011;30597;49.628;10.850;2023-12-04T00:41:41;8.20;;;7.27;;
44862;SDS011;30597;49.628;10.850;2023-12-04T00:44:08;7.47;;;6.77;;
44862;SDS011;30597;49.628;10.850;2023-12-04T00:46:33;8.50;;;7.70;;
44862;SDS011;30597;49.628;10.850;2023-12-04T00:48:59;10.70;;;7.67;;
44862;SDS011;30597;49.628;10.850;2023-12-04T00:51:24;9.13;;;6.90;;
44862;SDS011;30597;49.628;10.850;2023-12-04T00:53:51;11.50;;;7.00;;
44862;SDS011;30597;49.628;10.850;2023-12-04T00:56:16;7.77;;;7.07;;
44862;SDS011;30597;49.628;10.850;2023-12-04T00:58:43;7.17;;;6.40;;
44862;SDS011;30597;49.628;10.850;2023-12-04T01:01:09;7.23;;;6.63;;
44862;SDS011;30597;49.628;10.850;2023-12-04T01:03:34;8.60;;;7.00;;
44862;SDS011;30597;49.628;10.850;2023-12-04T01:06:00;7.90;;;7.10;;
44862;SDS011;30597;49.628;10.850;2023-12-04T01:08:26;9.27;;;6.80;;
44862;SDS011;30597;49.628;10.850;2023-12-04T01:10:51;7.40;;;6.70;;
44862;SDS011;30597;49.628;10.850;2023-12-04T01:13:17;7.37;;;6.67;;
44862;SDS011;30597;49.628;10.850;2023-12-04T01:15:42;10.80;;;7.23;;
44862;SDS011;30597;49.628;10.850;2023-12-04T01:18:09;6.90;;;6.30;;
44862;SDS011;30597;49.628;10.850;2023-12-04T01:20:35;6.80;;;6.20;;
44862;SDS011;30597;49.628;10.850;2023-12-04T01:23:01;7.10;;;6.40;;
44862;SDS011;30597;49.628;10.850;2023-12-04T01:25:26;7.37;;;6.77;;
44862;SDS011;30597;49.628;10.850;2023-12-04T01:27:52;8.70;;;7.53;;
44862;SDS011;30597;49.628;10.850;2023-12-04T01:30:17;7.53;;;6.73;;
44862;SDS011;30597;49.628;10.850;2023-12-04T01:32:43;7.07;;;6.37;;
44862;SDS011;30597;49.628;10.850;2023-12-04T01:35:08;8.07;;;7.27;;
44862;SDS011;30597;49.628;10.850;2023-12-04T01:37:34;7.00;;;6.40;;
44862;SDS011;30597;49.628;10.850;2023-12-04T01:40:01;8.10;;;7.13;;
44862;SDS011;30597;49.628;10.850;2023-12-04T01:42:27;6.33;;;5.73;;
44862;SDS011;30597;49.628;10.850;2023-12-04T01:44:53;7.87;;;6.13;;
44862;SDS011;30597;49.628;10.850;2023-12-04T01:47:19;7.13;;;6.53;;
44862;SDS011;30597;49.628;10.850;2023-12-04T01:49:45;6.57;;;5.97;;
44862;SDS011;30597;49.628;10.850;2023-12-04T01:52:10;7.13;;;6.47;;
44862;SDS011;30597;49.628;10.850;2023-12-04T01:54:36;7.17;;;6.47;;
44862;SDS011;30597;49.628;10.850;2023-12-04T01:57:02;7.40;;;6.70;;
44862;SDS011;30597;49.628;10.850;2023-12-04T01:59:29;6.37;;;5.87;;
44862;SDS011;30597;49.628;10.850;2023-12-04T02:01:54;8.50;;;6.30;;
44862;SDS011;30597;49.628;10.850;2023-12-04T02:04:21;6.67;;;6.13;;
44862;SDS011;30597;49.628;10.850;2023-12-04T02:06:47;6.13;;;5.63;;
44862;SDS011;30597;49.628;10.850;2023-12-04T02:09:12;6.77;;;6.13;;
44862;SDS011;30597;49.628;10.850;2023-12-04T02:11:39;7.40;;;6.70;;
44862;SDS011;30597;49.628;10.850;2023-12-04T02:14:05;6.30;;;5.70;;
44862;SDS011;30597;49.628;10.850;2023-12-04T02:16:31;6.10;;;5.30;;
44862;SDS011;30597;49.628;10.850;2023-12-04T02:19:01;6.43;;;5.83;;
44862;SDS011;30597;49.628;10.850;2023-12-04T02:21:29;7.27;;;6.00;;
44862;SDS011;30597;49.628;10.850;2023-12-04T02:23:54;6.97;;;6.23;;
44862;SDS011;30597;49.628;10.850;2023-12-04T02:26:22;6.90;;;6.30;;
44862;SDS011;30597;49.628;10.850;2023-12-04T02:28:54;6.37;;;5.87;;
44862;SDS011;30597;49.628;10.850;2023-12-04T02:31:24;6.63;;;6.03;;
44862;SDS011;30597;49.628;10.850;2023-12-04T02:33:55;6.13;;;5.53;;
44862;SDS011;30597;49.628;10.850;2023-12-04T02:36:22;7.30;;;5.43;;
44862;SDS011;30597;49.628;10.850;2023-12-04T02:38:50;5.60;;;5.13;;
44862;SDS011;30597;49.628;10.850;2023-12-04T02:41:17;6.50;;;5.90;;
44862;SDS011;30597;49.628;10.850;2023-12-04T02:43:43;5.70;;;5.20;;
44862;SDS011;30597;49.628;10.850;2023-12-04T02:46:09;5.50;;;4.97;;
44862;SDS011;30597;49.628;10.850;2023-12-04T02:48:34;6.20;;;5.60;;
44862;SDS011;30597;49.628;10.850;2023-12-04T02:51:00;5.40;;;4.90;;
44862;SDS011;30597;49.628;10.850;2023-12-04T02:53:26;6.30;;;5.70;;
44862;SDS011;30597;49.628;10.850;2023-12-04T02:55:52;6.20;;;5.70;;
44862;SDS011;30597;49.628;10.850;2023-12-04T02:58:18;5.70;;;5.10;;
44862;SDS011;30597;49.628;10.850;2023-12-04T03:00:43;6.20;;;5.70;;
44862;SDS011;30597;49.628;10.850;2023-12-04T03:03:09;6.30;;;5.70;;
44862;SDS011;30597;49.628;10.850;2023-12-04T03:05:34;6.40;;;5.80;;
44862;SDS011;30597;49.628;10.850;2023-12-04T03:08:00;5.83;;;5.23;;
44862;SDS011;30597;49.628;10.850;2023-12-04T03:10:25;9.20;;;5.80;;
44862;SDS011;30597;49.628;10.850;2023-12-04T03:12:51;5.60;;;5.10;;
44862;SDS011;30597;49.628;10.850;2023-12-04T03:15:17;5.80;;;5.20;;
44862;SDS011;30597;49.628;10.850;2023-12-04T03:17:42;5.83;;;5.33;;
44862;SDS011;30597;49.628;10.850;2023-12-04T03:20:08;5.93;;;5.33;;
44862;SDS011;30597;49.628;10.850;2023-12-04T03:22:35;5.67;;;5.10;;
44862;SDS011;30597;49.628;10.850;2023-12-04T03:25:01;5.63;;;5.13;;
44862;SDS011;30597;49.628;10.850;2023-12-04T03:27:27;5.10;;;4.60;;
44862;SDS011;30597;49.628;10.850;2023-12-04T03:29:53;6.47;;;5.80;;
44862;SDS011;30597;49.628;10.850;2023-12-04T03:32:19;5.87;;;5.23;;
44862;SDS011;30597;49.628;10.850;2023-12-04T03:34:44;5.20;;;4.70;;
44862;SDS011;30597;49.628;10.850;2023-12-04T03:37:10;5.50;;;5.00;;
44862;SDS011;30597;49.628;10.850;2023-12-04T03:39:36;5.03;;;4.63;;
44862;SDS011;30597;49.628;10.850;2023-12-04T03:42:01;5.43;;;4.93;;
44862;SDS011;30597;49.628;10.850;2023-12-04T03:44:27;5.40;;;4.90;;
44862;SDS011;30597;49.628;10.850;2023-12-04T03:46:53;6.43;;;5.83;;
44862;SDS011;30597;49.628;10.850;2023-12-04T03:49:18;6.77;;;5.33;;
44862;SDS011;30597;49.628;10.850;2023-12-04T03:51:44;4.90;;;4.40;;
44862;SDS011;30597;49.628;10.850;2023-12-04T03:54:09;4.67;;;4.20;;
44862;SDS011;30597;49.628;10.850;2023-12-04T03:56:35;4.97;;;4.47;;
44862;SDS011;30597;49.628;10.850;2023-12-04T03:59:00;4.67;;;4.23;;
44862;SDS011;30597;49.628;10.850;2023-12-04T04:01:26;4.90;;;4.40;;
44862;SDS011;30597;49.628;10.850;2023-12-04T04:03:51;5.77;;;5.17;;
44862;SDS011;30597;49.628;10.850;2023-12-04T04:06:17;4.70;;;4.30;;
44862;SDS011;30597;49.628;10.850;2023-12-04T04:08:42;4.27;;;3.87;;
44862;SDS011;30597;49.628;10.850;2023-12-04T04:11:08;4.27;;;3.93;;
44862;SDS011;30597;49.628;10.850;2023-12-04T04:13:33;4.40;;;3.87;;
44862;SDS011;30597;49.628;10.850;2023-12-04T04:15:59;5.10;;;4.60;;
44862;SDS011;30597;49.628;10.850;2023-12-04T04:18:24;4.97;;;4.50;;
44862;SDS011;30597;49.628;10.850;2023-12-04T04:20:50;4.10;;;3.70;;
44862;SDS011;30597;49.628;10.850;2023-12-04T04:23:15;4.63;;;4.23;;
44862;SDS011;30597;49.628;10.850;2023-12-04T04:25:41;5.40;;;4.90;;
44862;SDS011;30597;49.628;10.850;2023-12-04T04:28:06;4.70;;;4.30;;
44862;SDS011;30597;49.628;10.850;2023-12-04T04:30:32;4.50;;;4.10;;
44862;SDS011;30597;49.628;10.850;2023-12-04T04:32:57;4.17;;;3.87;;
44862;SDS011;30597;49.628;10.850;2023-12-04T04:35:23;4.63;;;3.97;;
44862;SDS011;30597;49.628;10.850;2023-12-04T04:37:49;4.40;;;4.10;;
44862;SDS011;30597;49.628;10.850;2023-12-04T04:40:15;4.70;;;4.30;;
44862;SDS011;30597;49.628;10.850;2023-12-04T04:42:41;4.43;;;4.03;;
44862;SDS011;30597;49.628;10.850;2023-12-04T04:45:08;4.30;;;4.00;;
44862;SDS011;30597;49.628;10.850;2023-12-04T04:47:34;4.03;;;3.63;;
44862;SDS011;30597;49.628;10.850;2023-12-04T04:49:59;4.00;;;3.57;;
44862;SDS011;30597;49.628;10.850;2023-12-04T04:52:25;4.33;;;3.97;;
44862;SDS011;30597;49.628;10.850;2023-12-04T04:54:50;4.20;;;3.77;;
44862;SDS011;30597;49.628;10.850;2023-12-04T04:57:16;4.13;;;3.30;;
44862;SDS011;30597;49.628;10.850;2023-12-04T04:59:41;4.10;;;3.67;;
44862;SDS011;30597;49.628;10.850;2023-12-04T05:02:07;4.40;;;4.10;;
44862;SDS011;30597;49.628;10.850;2023-12-04T05:04:32;5.00;;;4.50;;
44862;SDS011;30597;49.628;10.850;2023-12-04T05:06:59;4.33;;;4.03;;
44862;SDS011;30597;49.628;10.850;2023-12-04T05:09:25;4.77;;;4.37;;
44862;SDS011;30597;49.628;10.850;2023-12-04T05:11:51;4.57;;;4.17;;
44862;SDS011;30597;49.628;10.850;2023-12-04T05:14:17;4.30;;;3.90;;
44862;SDS011;30597;49.628;10.850;2023-12-04T05:16:42;4.70;;;4.30;;
44862;SDS011;30597;49.628;10.850;2023-12-04T05:19:08;4.40;;;4.00;;
44862;SDS011;30597;49.628;10.850;2023-12-04T05:21:33;3.77;;;3.47;;
44862;SDS011;30597;49.628;10.850;2023-12-04T05:23:59;3.93;;;3.60;;
44862;SDS011;30597;49.628;10.850;2023-12-04T05:26:24;4.13;;;3.83;;
44862;SDS011;30597;49.628;10.850;2023-12-04T05:28:50;4.77;;;4.37;;
44862;SDS011;30597;49.628;10.850;2023-12-04T05:31:15;3.90;;;3.60;;
44862;SDS011;30597;49.628;10.850;2023-12-04T05:33:41;5.07;;;4.03;;
44862;SDS011;30597;49.628;10.850;2023-12-04T05:36:06;3.63;;;3.33;;
44862;SDS011;30597;49.628;10.850;2023-12-04T05:38:32;3.70;;;3.40;;
44862;SDS011;30597;49.628;10.850;2023-12-04T05:40:59;4.10;;;3.77;;
44862;SDS011;30597;49.628;10.850;2023-12-04T05:43:25;3.30;;;3.10;;
44862;SDS011;30597;49.628;10.850;2023-12-04T05:45:50;3.90;;;3.60;;
44862;SDS011;30597;49.628;10.850;2023-12-04T05:48:16;4.20;;;3.80;;
44862;SDS011;30597;49.628;10.850;2023-12-04T05:50:41;3.80;;;3.47;;
44862;SDS011;30597;49.628;10.850;2023-12-04T05:53:07;3.77;;;3.47;;
44862;SDS011;30597;49.628;10.850;2023-12-04T05:55:33;3.50;;;3.20;;
44862;SDS011;30597;49.628;10.850;2023-12-04T05:57:58;3.67;;;3.37;;
44862;SDS011;30597;49.628;10.850;2023-12-04T06:00:24;3.60;;;3.30;;
44862;SDS011;30597;49.628;10.850;2023-12-04T06:02:50;3.87;;;3.57;;
44862;SDS011;30597;49.628;10.850;2023-12-04T06:05:16;3.80;;;3.50;;
44862;SDS011;30597;49.628;10.850;2023-12-04T06:07:41;3.37;;;3.07;;
44862;SDS011;30597;49.628;10.850;2023-12-04T06:10:07;3.40;;;3.10;;
44862;SDS011;30597;49.628;10.850;2023-12-04T06:12:33;3.83;;;3.43;;
44862;SDS011;30597;49.628;10.850;2023-12-04T06:14:59;3.80;;;3.50;;
44862;SDS011;30597;49.628;10.850;2023-12-04T06:17:25;3.50;;;3.20;;
44862;SDS011;30597;49.628;10.850;2023-12-04T06:19:50;3.63;;;3.20;;
44862;SDS011;30597;49.628;10.850;2023-12-04T06:22:16;3.50;;;3.20;;
44862;SDS011;30597;49.628;10.850;2023-12-04T06:24:45;3.90;;;3.60;;
44862;SDS011;30597;49.628;10.850;2023-12-04T06:27:12;4.20;;;3.50;;
44862;SDS011;30597;49.628;10.850;2023-12-04T06:29:41;3.80;;;3.50;;
44862;SDS011;30597;49.628;10.850;2023-12-04T06:32:08;5.67;;;3.30;;
44862;SDS011;30597;49.628;10.850;2023-12-04T06:34:35;3.50;;;3.30;;
44862;SDS011;30597;49.628;10.850;2023-12-04T06:37:01;3.43;;;3.13;;
44862;SDS011;30597;49.628;10.850;2023-12-04T06:39:29;3.27;;;2.97;;
44862;SDS011;30597;49.628;10.850;2023-12-04T06:41:58;3.60;;;3.30;;
44862;SDS011;30597;49.628;10.850;2023-12-04T06:44:24;3.60;;;3.30;;
44862;SDS011;30597;49.628;10.850;2023-12-04T06:46:50;3.70;;;3.40;;
44862;SDS011;30597;49.628;10.850;2023-12-04T06:49:17;3.63;;;3.33;;
44862;SDS011;30597;49.628;10.850;2023-12-04T06:51:43;3.63;;;3.33;;
44862;SDS011;30597;49.628;10.850;2023-12-04T06:54:09;3.93;;;3.60;;
44862;SDS011;30597;49.628;10.850;2023-12-04T06:56:34;3.40;;;3.13;;
44862;SDS011;30597;49.628;10.850;2023-12-04T06:59:00;4.10;;;3.70;;
44862;SDS011;30597;49.628;10.850;2023-12-04T07:01:25;4.27;;;3.90;;
44862;SDS011;30597;49.628;10.850;2023-12-04T07:03:51;3.63;;;3.33;;
44862;SDS011;30597;49.628;10.850;2023-12-04T07:06:17;3.83;;;3.40;;
44862;SDS011;30597;49.628;10.850;2023-12-04T07:08:43;7.20;;;3.60;;
44862;SDS011;30597;49.628;10.850;2023-12-04T07:11:09;8.77;;;3.20;;
44862;SDS011;30597;49.628;10.850;2023-12-04T07:13:35;10.20;;;3.70;;
44862;SDS011;30597;49.628;10.850;2023-12-04T07:16:00;4.30;;;3.93;;
44862;SDS011;30597;49.628;10.850;2023-12-04T07:18:26;4.30;;;3.90;;
44862;SDS011;30597;49.628;10.850;2023-12-04T07:20:51;4.03;;;3.60;;
44862;SDS011;30597;49.628;10.850;2023-12-04T07:23:17;4.10;;;3.80;;
44862;SDS011;30597;49.628;10.850;2023-12-04T07:25:42;5.50;;;4.13;;
44862;SDS011;30597;49.628;10.850;2023-12-04T07:28:08;6.30;;;4.40;;
44862;SDS011;30597;49.628;10.850;2023-12-04T07:30:34;4.50;;;4.10;;
44862;SDS011;30597;49.628;10.850;2023-12-04T07:32:59;5.00;;;4.20;;
44862;SDS011;30597;49.628;10.850;2023-12-04T07:35:25;5.30;;;4.30;;
44862;SDS011;30597;49.628;10.850;2023-12-04T07:37:51;5.57;;;5.07;;
44862;SDS011;30597;49.628;10.850;2023-12-04T07:40:17;4.80;;;4.40;;
44862;SDS011;30597;49.628;10.850;2023-12-04T07:42:43;4.57;;;4.17;;
44862;SDS011;30597;49.628;10.850;2023-12-04T07:45:08;4.07;;;3.73;;
44862;SDS011;30597;49.628;10.850;2023-12-04T07:47:35;4.73;;;4.33;;
44862;SDS011;30597;49.628;10.850;2023-12-04T07:50:01;4.00;;;3.70;;
44862;SDS011;30597;49.628;10.850;2023-12-04T07:52:26;4.83;;;4.40;;
44862;SDS011;30597;49.628;10.850;2023-12-04T07:54:52;4.50;;;4.10;;
44862;SDS011;30597;49.628;10.850;2023-12-04T07:57:18;4.70;;;4.30;;
44862;SDS011;30597;49.628;10.850;2023-12-04T07:59:43;5.20;;;4.80;;
44862;SDS011;30597;49.628;10.850;2023-12-04T08:02:09;4.10;;;3.80;;
44862;SDS011;30597;49.628;10.850;2023-12-04T08:04:35;8.63;;;5.00;;
44862;SDS011;30597;49.628;10.850;2023-12-04T08:07:01;4.97;;;4.33;;
44862;SDS011;30597;49.628;10.850;2023-12-04T08:09:27;4.70;;;4.30;;
44862;SDS011;30597;49.628;10.850;2023-12-04T08:11:52;4.43;;;4.03;;
44862;SDS011;30597;49.628;10.850;2023-12-04T08:14:18;4.40;;;4.00;;
44862;SDS011;30597;49.628;10.850;2023-12-04T08:16:44;4.37;;;4.00;;
44862;SDS011;30597;49.628;10.850;2023-12-04T08:19:09;5.50;;;4.43;;
44862;SDS011;30597;49.628;10.850;2023-12-04T08:21:35;4.10;;;3.80;;
44862;SDS011;30597;49.628;10.850;2023-12-04T08:24:00;8.00;;;4.70;;
44862;SDS011;30597;49.628;10.850;2023-12-04T08:26:26;5.83;;;4.67;;
44862;SDS011;30597;49.628;10.850;2023-12-04T08:28:52;4.57;;;4.27;;
44862;SDS011;30597;49.628;10.850;2023-12-04T08:31:17;4.03;;;3.63;;
44862;SDS011;30597;49.628;10.850;2023-12-04T08:33:43;5.03;;;4.60;;
44862;SDS011;30597;49.628;10.850;2023-12-04T08:36:09;4.87;;;4.43;;
44862;SDS011;30597;49.628;10.850;2023-12-04T08:38:35;10.07;;;5.53;;
44862;SDS011;30597;49.628;10.850;2023-12-04T08:41:01;14.00;;;6.40;;
44862;SDS011;30597;49.628;10.850;2023-12-04T08:43:27;13.50;;;7.30;;
44862;SDS011;30597;49.628;10.850;2023-12-04T08:45:53;11.70;;;7.83;;
44862;SDS011;30597;49.628;10.850;2023-12-04T08:48:19;13.37;;;7.60;;
44862;SDS011;30597;49.628;10.850;2023-12-04T08:50:45;36.17;;;10.03;;
44862;SDS011;30597;49.628;10.850;2023-12-04T08:53:10;10.87;;;9.40;;
44862;SDS011;30597;49.628;10.850;2023-12-04T08:55:37;11.07;;;7.67;;
44862;SDS011;30597;49.628;10.850;2023-12-04T08:58:02;12.93;;;8.57;;
44862;SDS011;30597;49.628;10.850;2023-12-04T09:00:28;12.97;;;8.13;;
44862;SDS011;30597;49.628;10.850;2023-12-04T09:02:54;14.73;;;8.00;;
44862;SDS011;30597;49.628;10.850;2023-12-04T09:05:20;23.90;;;8.10;;
44862;SDS011;30597;49.628;10.850;2023-12-04T09:07:46;12.83;;;7.77;;
44862;SDS011;30597;49.628;10.850;2023-12-04T09:10:11;15.23;;;9.73;;
44862;SDS011;30597;49.628;10.850;2023-12-04T09:12:37;15.70;;;8.83;;
44862;SDS011;30597;49.628;10.850;2023-12-04T09:15:04;10.73;;;7.70;;
44862;SDS011;30597;49.628;10.850;2023-12-04T09:17:30;17.10;;;9.33;;
44862;SDS011;30597;49.628;10.850;2023-12-04T09:19:56;15.30;;;9.10;;
44862;SDS011;30597;49.628;10.850;2023-12-04T09:22:22;12.53;;;8.60;;
44862;SDS011;30597;49.628;10.850;2023-12-04T09:24:47;13.67;;;8.53;;
44862;SDS011;30597;49.628;10.850;2023-12-04T09:27:13;13.93;;;10.43;;
44862;SDS011;30597;49.628;10.850;2023-12-04T09:29:38;15.47;;;9.87;;
44862;SDS011;30597;49.628;10.850;2023-12-04T09:32:06;17.17;;;10.20;;
44862;SDS011;30597;49.628;10.850;2023-12-04T09:34:31;24.67;;;9.40;;
44862;SDS011;30597;49.628;10.850;2023-12-04T09:36:57;15.73;;;8.50;;
44862;SDS011;30597;49.628;10.850;2023-12-04T09:39:22;14.80;;;8.80;;
44862;SDS011;30597;49.628;10.850;2023-12-04T09:41:48;16.33;;;8.83;;
44862;SDS011;30597;49.628;10.850;2023-12-04T09:44:15;17.03;;;9.77;;
44862;SDS011;30597;49.628;10.850;2023-12-04T09:46:41;11.80;;;7.97;;
44862;SDS011;30597;49.628;10.850;2023-12-04T09:49:08;11.73;;;7.57;;
44862;SDS011;30597;49.628;10.850;2023-12-04T09:51:33;11.30;;;8.20;;
44862;SDS011;30597;49.628;10.850;2023-12-04T09:54:00;10.13;;;8.40;;
44862;SDS011;30597;49.628;10.850;2023-12-04T09:56:29;10.83;;;9.10;;
44862;SDS011;30597;49.628;10.850;2023-12-04T09:58:57;15.83;;;9.00;;
44862;SDS011;30597;49.628;10.850;2023-12-04T10:01:29;13.83;;;7.67;;
44862;SDS011;30597;49.628;10.850;2023-12-04T10:03:57;11.00;;;8.60;;
44862;SDS011;30597;49.628;10.850;2023-12-04T10:06:26;11.67;;;7.53;;
44862;SDS011;30597;49.628;10.850;2023-12-04T10:08:53;10.43;;;7.00;;
44862;SDS011;30597;49.628;10.850;2023-12-04T10:11:18;11.60;;;7.67;;
44862;SDS011;30597;49.628;10.850;2023-12-04T10:13:44;10.67;;;7.00;;
44862;SDS011;30597;49.628;10.850;2023-12-04T10:16:09;9.87;;;7.60;;
44862;SDS011;30597;49.628;10.850;2023-12-04T10:18:35;10.27;;;7.30;;
44862;SDS011;30597;49.628;10.850;2023-12-04T10:21:01;9.37;;;7.87;;
44862;SDS011;30597;49.628;10.850;2023-12-04T10:23:39;10.03;;;6.80;;
44862;SDS011;30597;49.628;10.850;2023-12-04T10:26:06;8.90;;;6.67;;
44862;SDS011;30597;49.628;10.850;2023-12-04T10:28:32;13.27;;;7.93;;
44862;SDS011;30597;49.628;10.850;2023-12-04T10:30:58;8.30;;;6.23;;
44862;SDS011;30597;49.628;10.850;2023-12-04T10:33:24;9.97;;;7.50;;
44862;SDS011;30597;49.628;10.850;2023-12-04T10:35:53;11.37;;;6.70;;
44862;SDS011;30597;49.628;10.850;2023-12-04T10:38:20;10.17;;;7.53;;
44862;SDS011;30597;49.628;10.850;2023-12-04T10:40:46;13.33;;;7.47;;
44862;SDS011;30597;49.628;10.850;2023-12-04T10:43:14;7.17;;;6.30;;
44862;SDS011;30597;49.628;10.850;2023-12-04T10:45:41;11.33;;;6.47;;
44862;SDS011;30597;49.628;10.850;2023-12-04T10:48:08;9.40;;;6.40;;
44862;SDS011;30597;49.628;10.850;2023-12-04T10:50:39;7.97;;;6.97;;
44862;SDS011;30597;49.628;10.850;2023-12-04T10:53:10;11.10;;;6.97;;
44862;SDS011;30597;49.628;10.850;2023-12-04T10:55:37;10.27;;;7.87;;
44862;SDS011;30597;49.628;10.850;2023-12-04T10:58:05;8.10;;;7.17;;
44862;SDS011;30597;49.628;10.850;2023-12-04T11:00:35;8.20;;;6.93;;
44862;SDS011;30597;49.628;10.850;2023-12-04T11:03:08;11.40;;;6.90;;
44862;SDS011;30597;49.628;10.850;2023-12-04T11:05:38;7.93;;;6.03;;
44862;SDS011;30597;49.628;10.850;2023-12-04T11:08:05;11.07;;;7.10;;
44862;SDS011;30597;49.628;10.850;2023-12-04T11:10:33;11.80;;;6.60;;
44862;SDS011;30597;49.628;10.850;2023-12-04T11:13:02;8.93;;;6.53;;
44862;SDS011;30597;49.628;10.850;2023-12-04T11:15:34;9.30;;;6.87;;
44862;SDS011;30597;49.628;10.850;2023-12-04T11:18:04;9.87;;;7.20;;
44862;SDS011;30597;49.628;10.850;2023-12-04T11:20:32;10.73;;;6.53;;
44862;SDS011;30597;49.628;10.850;2023-12-04T11:23:05;8.60;;;6.10;;
44862;SDS011;30597;49.628;10.850;2023-12-04T11:25:32;10.50;;;7.10;;
44862;SDS011;30597;49.628;10.850;2023-12-04T11:28:00;8.03;;;6.77;;
44862;SDS011;30597;49.628;10.850;2023-12-04T11:30:26;9.50;;;6.20;;
44862;SDS011;30597;49.628;10.850;2023-12-04T11:32:54;7.43;;;6.60;;
44862;SDS011;30597;49.628;10.850;2023-12-04T11:35:21;11.60;;;7.33;;
44862;SDS011;30597;49.628;10.850;2023-12-04T11:37:51;8.57;;;6.63;;
44862;SDS011;30597;49.628;10.850;2023-12-04T11:40:17;8.30;;;6.40;;
44862;SDS011;30597;49.628;10.850;2023-12-04T11:42:43;9.00;;;6.70;;
44862;SDS011;30597;49.628;10.850;2023-12-04T11:45:09;9.20;;;6.40;;
44862;SDS011;30597;49.628;10.850;2023-12-04T11:50:21;9.73;;;7.30;;
44862;SDS011;30597;49.628;10.850;2023-12-04T11:52:48;8.53;;;6.47;;
44862;SDS011;30597;49.628;10.850;2023-12-04T11:55:21;8.40;;;5.73;;
44862;SDS011;30597;49.628;10.850;2023-12-04T11:57:47;6.77;;;5.80;;
44862;SDS011;30597;49.628;10.850;2023-12-04T12:02:46;7.83;;;6.00;;
44862;SDS011;30597;49.628;10.850;2023-12-04T12:05:14;6.77;;;6.00;;
44862;SDS011;30597;49.628;10.850;2023-12-04T12:07:39;7.97;;;6.00;;
44862;SDS011;30597;49.628;10.850;2023-12-04T12:10:05;9.87;;;6.67;;
44862;SDS011;30597;49.628;10.850;2023-12-04T12:12:31;6.80;;;5.97;;
44862;SDS011;30597;49.628;10.850;2023-12-04T12:14:57;7.07;;;5.53;;
44862;SDS011;30597;49.628;10.850;2023-12-04T12:17:23;6.97;;;5.57;;
44862;SDS011;30597;49.628;10.850;2023-12-04T12:19:50;7.00;;;5.20;;
44862;SDS011;30597;49.628;10.850;2023-12-04T12:22:15;5.83;;;5.23;;
44862;SDS011;30597;49.628;10.850;2023-12-04T12:24:41;7.23;;;5.43;;
44862;SDS011;30597;49.628;10.850;2023-12-04T12:27:07;6.17;;;5.57;;
44862;SDS011;30597;49.628;10.850;2023-12-04T12:29:33;6.77;;;5.97;;
44862;SDS011;30597;49.628;10.850;2023-12-04T12:31:58;6.33;;;5.70;;
44862;SDS011;30597;49.628;10.850;2023-12-04T12:34:24;6.90;;;5.87;;
44862;SDS011;30597;49.628;10.850;2023-12-04T12:36:49;5.90;;;5.00;;
44862;SDS011;30597;49.628;10.850;2023-12-04T12:39:15;6.57;;;4.90;;
44862;SDS011;30597;49.628;10.850;2023-12-04T12:41:46;7.63;;;6.00;;
44862;SDS011;30597;49.628;10.850;2023-12-04T12:44:14;5.53;;;4.80;;
44862;SDS011;30597;49.628;10.850;2023-12-04T12:46:46;6.57;;;5.30;;
44862;SDS011;30597;49.628;10.850;2023-12-04T12:49:14;8.50;;;5.70;;
44862;SDS011;30597;49.628;10.850;2023-12-04T12:51:42;5.10;;;4.60;;
44862;SDS011;30597;49.628;10.850;2023-12-04T12:54:07;5.90;;;5.00;;
44862;SDS011;30597;49.628;10.850;2023-12-04T12:56:33;6.40;;;5.80;;
44862;SDS011;30597;49.628;10.850;2023-12-04T12:58:59;8.13;;;6.00;;
44862;SDS011;30597;49.628;10.850;2023-12-04T13:01:25;5.20;;;4.77;;
44862;SDS011;30597;49.628;10.850;2023-12-04T13:03:56;6.97;;;5.53;;
44862;SDS011;30597;49.628;10.850;2023-12-04T13:06:22;6.17;;;5.20;;
44862;SDS011;30597;49.628;10.850;2023-12-04T13:08:47;5.70;;;5.10;;
44862;SDS011;30597;49.628;10.850;2023-12-04T13:11:13;5.43;;;4.60;;
44862;SDS011;30597;49.628;10.850;2023-12-04T13:13:38;6.97;;;5.90;;
44862;SDS011;30597;49.628;10.850;2023-12-04T13:16:05;5.50;;;4.77;;
44862;SDS011;30597;49.628;10.850;2023-12-04T13:18:31;6.30;;;5.43;;
44862;SDS011;30597;49.628;10.850;2023-12-04T13:21:00;5.70;;;5.07;;
44862;SDS011;30597;49.628;10.850;2023-12-04T13:23:25;6.23;;;4.80;;
44862;SDS011;30597;49.628;10.850;2023-12-04T13:25:51;5.90;;;5.30;;
44862;SDS011;30597;49.628;10.850;2023-12-04T13:28:16;8.27;;;6.00;;
44862;SDS011;30597;49.628;10.850;2023-12-04T13:30:42;7.20;;;5.10;;
44862;SDS011;30597;49.628;10.850;2023-12-04T13:33:08;6.43;;;5.60;;
44862;SDS011;30597;49.628;10.850;2023-12-04T13:35:33;6.50;;;5.77;;
44862;SDS011;30597;49.628;10.850;2023-12-04T13:37:59;6.03;;;5.40;;
44862;SDS011;30597;49.628;10.850;2023-12-04T13:40:24;5.70;;;5.20;;
44862;SDS011;30597;49.628;10.850;2023-12-04T13:42:53;6.33;;;5.67;;
44862;SDS011;30597;49.628;10.850;2023-12-04T13:45:37;6.07;;;5.43;;
44862;SDS011;30597;49.628;10.850;2023-12-04T13:48:03;6.33;;;5.83;;
44862;SDS011;30597;49.628;10.850;2023-12-04T13:50:29;7.80;;;6.43;;
44862;SDS011;30597;49.628;10.850;2023-12-04T13:52:54;7.67;;;6.83;;
44862;SDS011;30597;49.628;10.850;2023-12-04T13:55:22;7.73;;;6.73;;
44862;SDS011;30597;49.628;10.850;2023-12-04T13:58:08;7.60;;;6.90;;
44862;SDS011;30597;49.628;10.850;2023-12-04T14:00:36;7.27;;;6.23;;
44862;SDS011;30597;49.628;10.850;2023-12-04T14:03:02;9.07;;;7.93;;
44862;SDS011;30597;49.628;10.850;2023-12-04T14:05:32;8.37;;;7.47;;
44862;SDS011;30597;49.628;10.850;2023-12-04T14:07:58;9.20;;;7.20;;
44862;SDS011;30597;49.628;10.850;2023-12-04T14:10:24;9.03;;;7.80;;
44862;SDS011;30597;49.628;10.850;2023-12-04T14:12:56;9.27;;;7.20;;
44862;SDS011;30597;49.628;10.850;2023-12-04T14:15:21;8.07;;;7.27;;
44862;SDS011;30597;49.628;10.850;2023-12-04T14:17:47;7.80;;;7.00;;
44862;SDS011;30597;49.628;10.850;2023-12-04T14:20:12;8.30;;;7.37;;
44862;SDS011;30597;49.628;10.850;2023-12-04T14:22:43;8.43;;;7.57;;
44862;SDS011;30597;49.628;10.850;2023-12-04T14:25:12;8.17;;;7.40;;
44862;SDS011;30597;49.628;10.850;2023-12-04T14:27:38;8.43;;;6.57;;
44862;SDS011;30597;49.628;10.850;2023-12-04T14:30:08;8.33;;;7.40;;
44862;SDS011;30597;49.628;10.850;2023-12-04T14:32:35;7.37;;;6.67;;